sensor_id;sensor_type;location;lat;lon;timestamp;pressure;altitude;pressure_sealevel;temperature;humidity
78431;BME280;67727;50.236;22.452;2023-12-29T00:00:25;99680.05;;;5.97;77.85
78431;BME280;67727;50.236;22.452;2023-12-29T00:03:12;99675.97;;;6.00;77.76
78431;BME280;67727;50.236;22.452;2023-12-29T00:05:39;99677.61;;;5.99;77.57
78431;BME280;67727;50.236;22.452;2023-12-29T00:08:06;99676.36;;;5.96;77.52
78431;BME280;67727;50.236;22.452;2023-12-29T00:10:33;99672.40;;;5.93;77.62
78431;BME280;67727;50.236;22.452;2023-12-29T00:13:00;99671.94;;;5.93;77.60
78431;BME280;67727;50.236;22.452;2023-12-29T00:15:27;99669.77;;;5.93;77.77
78431;BME280;67727;50.236;22.452;2023-12-29T00:17:54;99671.58;;;5.95;77.64
78431;BME280;67727;50.236;22.452;2023-12-29T00:20:20;99670.85;;;5.97;77.79
78431;BME280;67727;50.236;22.452;2023-12-29T00:22:47;99670.73;;;5.98;77.64
78431;BME280;67727;50.236;22.452;2023-12-29T00:25:14;99672.27;;;5.98;77.81
78431;BME280;67727;50.236;22.452;2023-12-29T00:27:42;99679.01;;;5.98;77.64
78431;BME280;67727;50.236;22.452;2023-12-29T00:30:09;99676.33;;;5.96;77.75
78431;BME280;67727;50.236;22.452;2023-12-29T00:32:35;99670.33;;;5.95;77.72
78431;BME280;67727;50.236;22.452;2023-12-29T00:35:03;99669.51;;;5.94;77.77
78431;BME280;67727;50.236;22.452;2023-12-29T00:37:29;99679.25;;;5.95;77.99
78431;BME280;67727;50.236;22.452;2023-12-29T00:39:56;99677.72;;;5.96;78.27
78431;BME280;67727;50.236;22.452;2023-12-29T00:42:23;99680.73;;;6.00;78.20
78431;BME280;67727;50.236;22.452;2023-12-29T00:44:51;99678.12;;;6.03;78.14
78431;BME280;67727;50.236;22.452;2023-12-29T00:47:18;99678.42;;;6.07;78.01
78431;BME280;67727;50.236;22.452;2023-12-29T00:49:46;99676.95;;;6.12;77.88
78431;BME280;67727;50.236;22.452;2023-12-29T00:52:13;99670.96;;;6.13;77.95
78431;BME280;67727;50.236;22.452;2023-12-29T00:54:40;99665.95;;;6.15;77.95
78431;BME280;67727;50.236;22.452;2023-12-29T00:57:07;99668.58;;;6.15;77.74
78431;BME280;67727;50.236;22.452;2023-12-29T00:59:37;99665.14;;;6.14;77.77
78431;BME280;67727;50.236;22.452;2023-12-29T01:02:07;99668.86;;;6.12;77.64
78431;BME280;67727;50.236;22.452;2023-12-29T01:04:34;99663.92;;;6.10;77.96
78431;BME280;67727;50.236;22.452;2023-12-29T01:07:01;99662.46;;;6.11;77.81
78431;BME280;67727;50.236;22.452;2023-12-29T01:09:27;99657.58;;;6.11;77.82
78431;BME280;67727;50.236;22.452;2023-12-29T01:11:54;99661.86;;;6.12;77.91
78431;BME280;67727;50.236;22.452;2023-12-29T01:14:21;99669.70;;;6.14;77.89
78431;BME280;67727;50.236;22.452;2023-12-29T01:16:48;99662.80;;;6.16;77.85
78431;BME280;67727;50.236;22.452;2023-12-29T01:19:15;99652.13;;;6.20;77.90
78431;BME280;67727;50.236;22.452;2023-12-29T01:21:41;99643.13;;;6.22;77.81
78431;BME280;67727;50.236;22.452;2023-12-29T01:24:09;99644.32;;;6.24;77.98
78431;BME280;67727;50.236;22.452;2023-12-29T01:26:39;99638.47;;;6.26;77.92
78431;BME280;67727;50.236;22.452;2023-12-29T01:29:06;99637.03;;;6.27;77.89
78431;BME280;67727;50.236;22.452;2023-12-29T01:31:33;99639.30;;;6.27;77.86
78431;BME280;67727;50.236;22.452;2023-12-29T01:34:00;99638.64;;;6.26;77.76
78431;BME280;67727;50.236;22.452;2023-12-29T01:36:26;99636.07;;;6.26;77.66
78431;BME280;67727;50.236;22.452;2023-12-29T01:38:53;99633.77;;;6.26;77.72
78431;BME280;67727;50.236;22.452;2023-12-29T01:41:20;99628.64;;;6.26;78.00
78431;BME280;67727;50.236;22.452;2023-12-29T01:44:17;99633.11;;;6.28;77.85
78431;BME280;67727;50.236;22.452;2023-12-29T01:46:44;99628.16;;;6.30;78.03
78431;BME280;67727;50.236;22.452;2023-12-29T01:49:16;99625.23;;;6.33;77.71
78431;BME280;67727;50.236;22.452;2023-12-29T01:51:54;99625.08;;;6.34;77.68
78431;BME280;67727;50.236;22.452;2023-12-29T01:54:23;99624.52;;;6.37;77.94
78431;BME280;67727;50.236;22.452;2023-12-29T01:56:52;99624.53;;;6.38;78.15
78431;BME280;67727;50.236;22.452;2023-12-29T01:59:24;99623.91;;;6.41;77.60
78431;BME280;67727;50.236;22.452;2023-12-29T02:01:53;99625.60;;;6.43;77.68
78431;BME280;67727;50.236;22.452;2023-12-29T02:04:20;99621.73;;;6.45;77.63
78431;BME280;67727;50.236;22.452;2023-12-29T02:06:47;99617.23;;;6.46;77.61
78431;BME280;67727;50.236;22.452;2023-12-29T02:09:15;99611.73;;;6.47;77.72
78431;BME280;67727;50.236;22.452;2023-12-29T02:11:46;99607.09;;;6.46;77.63
78431;BME280;67727;50.236;22.452;2023-12-29T02:14:14;99603.96;;;6.44;77.50
78431;BME280;67727;50.236;22.452;2023-12-29T02:22:11;99614.52;;;6.42;77.88
78431;BME280;67727;50.236;22.452;2023-12-29T02:24:39;99617.45;;;6.44;77.87
78431;BME280;67727;50.236;22.452;2023-12-29T02:32:43;99622.73;;;6.51;77.66
78431;BME280;67727;50.236;22.452;2023-12-29T02:35:15;99616.85;;;6.52;77.86
78431;BME280;67727;50.236;22.452;2023-12-29T02:37:44;99614.70;;;6.50;77.68
78431;BME280;67727;50.236;22.452;2023-12-29T02:40:11;99608.52;;;6.49;77.80
78431;BME280;67727;50.236;22.452;2023-12-29T02:42:38;99595.38;;;6.47;77.80
78431;BME280;67727;50.236;22.452;2023-12-29T02:45:10;99592.31;;;6.46;77.76
78431;BME280;67727;50.236;22.452;2023-12-29T02:47:37;99593.43;;;6.45;78.01
78431;BME280;67727;50.236;22.452;2023-12-29T02:50:04;99591.45;;;6.46;78.04
78431;BME280;67727;50.236;22.452;2023-12-29T02:52:31;99588.17;;;6.47;77.95
78431;BME280;67727;50.236;22.452;2023-12-29T02:54:58;99584.33;;;6.49;78.04
78431;BME280;67727;50.236;22.452;2023-12-29T02:57:24;99579.42;;;6.50;77.87
78431;BME280;67727;50.236;22.452;2023-12-29T02:59:52;99581.38;;;6.52;77.91
78431;BME280;67727;50.236;22.452;2023-12-29T03:02:19;99583.41;;;6.52;77.74
78431;BME280;67727;50.236;22.452;2023-12-29T03:04:46;99582.55;;;6.54;77.67
78431;BME280;67727;50.236;22.452;2023-12-29T03:07:13;99582.73;;;6.54;77.64
78431;BME280;67727;50.236;22.452;2023-12-29T03:09:40;99578.41;;;6.55;77.84
78431;BME280;67727;50.236;22.452;2023-12-29T03:12:07;99571.21;;;6.55;77.89
78431;BME280;67727;50.236;22.452;2023-12-29T03:14:34;99575.69;;;6.56;78.00
78431;BME280;67727;50.236;22.452;2023-12-29T03:17:01;99577.36;;;6.57;77.73
78431;BME280;67727;50.236;22.452;2023-12-29T03:19:28;99577.56;;;6.58;77.60
78431;BME280;67727;50.236;22.452;2023-12-29T03:21:55;99582.02;;;6.61;77.74
78431;BME280;67727;50.236;22.452;2023-12-29T03:24:22;99585.21;;;6.63;78.03
78431;BME280;67727;50.236;22.452;2023-12-29T03:26:49;99586.30;;;6.64;77.98
78431;BME280;67727;50.236;22.452;2023-12-29T03:29:17;99586.90;;;6.65;77.85
78431;BME280;67727;50.236;22.452;2023-12-29T03:31:43;99579.19;;;6.65;77.82
78431;BME280;67727;50.236;22.452;2023-12-29T03:34:10;99579.20;;;6.65;77.78
78431;BME280;67727;50.236;22.452;2023-12-29T03:36:37;99577.38;;;6.64;77.88
78431;BME280;67727;50.236;22.452;2023-12-29T03:39:04;99579.02;;;6.63;77.98
78431;BME280;67727;50.236;22.452;2023-12-29T03:41:31;99577.41;;;6.63;77.87
78431;BME280;67727;50.236;22.452;2023-12-29T03:43:58;99572.58;;;6.64;78.17
78431;BME280;67727;50.236;22.452;2023-12-29T03:46:26;99573.23;;;6.66;78.28
78431;BME280;67727;50.236;22.452;2023-12-29T03:48:52;99572.87;;;6.68;78.25
78431;BME280;67727;50.236;22.452;2023-12-29T03:51:20;99566.66;;;6.69;78.50
78431;BME280;67727;50.236;22.452;2023-12-29T03:53:47;99565.14;;;6.70;78.40
78431;BME280;67727;50.236;22.452;2023-12-29T03:56:18;99565.84;;;6.70;78.36
78431;BME280;67727;50.236;22.452;2023-12-29T03:58:46;99563.01;;;6.70;78.57
78431;BME280;67727;50.236;22.452;2023-12-29T04:01:13;99562.55;;;6.71;78.43
78431;BME280;67727;50.236;22.452;2023-12-29T04:03:41;99558.83;;;6.71;78.46
78431;BME280;67727;50.236;22.452;2023-12-29T04:06:08;99557.60;;;6.71;78.47
78431;BME280;67727;50.236;22.452;2023-12-29T04:08:36;99555.69;;;6.71;78.35
78431;BME280;67727;50.236;22.452;2023-12-29T04:11:04;99552.83;;;6.72;78.67
78431;BME280;67727;50.236;22.452;2023-12-29T04:13:32;99555.86;;;6.73;78.36
78431;BME280;67727;50.236;22.452;2023-12-29T04:15:59;99553.82;;;6.74;78.52
78431;BME280;67727;50.236;22.452;2023-12-29T04:18:26;99551.65;;;6.75;78.65
78431;BME280;67727;50.236;22.452;2023-12-29T04:20:53;99549.84;;;6.75;78.58
78431;BME280;67727;50.236;22.452;2023-12-29T04:23:20;99545.98;;;6.75;78.40
78431;BME280;67727;50.236;22.452;2023-12-29T04:25:47;99542.66;;;6.75;78.25
78431;BME280;67727;50.236;22.452;2023-12-29T04:28:13;99535.88;;;6.74;78.52
78431;BME280;67727;50.236;22.452;2023-12-29T04:30:40;99539.46;;;6.74;78.50
78431;BME280;67727;50.236;22.452;2023-12-29T04:33:07;99544.73;;;6.72;78.36
78431;BME280;67727;50.236;22.452;2023-12-29T04:35:34;99547.23;;;6.70;78.54
78431;BME280;67727;50.236;22.452;2023-12-29T04:38:01;99548.71;;;6.69;78.58
78431;BME280;67727;50.236;22.452;2023-12-29T04:40:27;99544.23;;;6.69;78.59
78431;BME280;67727;50.236;22.452;2023-12-29T04:42:55;99538.54;;;6.69;78.53
78431;BME280;67727;50.236;22.452;2023-12-29T04:45:21;99535.25;;;6.69;78.70
78431;BME280;67727;50.236;22.452;2023-12-29T04:47:48;99531.59;;;6.68;78.63
78431;BME280;67727;50.236;22.452;2023-12-29T04:50:15;99529.69;;;6.68;78.65
78431;BME280;67727;50.236;22.452;2023-12-29T04:52:43;99530.30;;;6.67;78.57
78431;BME280;67727;50.236;22.452;2023-12-29T04:55:09;99530.10;;;6.66;78.51
78431;BME280;67727;50.236;22.452;2023-12-29T04:57:37;99528.63;;;6.65;78.76
78431;BME280;67727;50.236;22.452;2023-12-29T05:00:04;99526.52;;;6.63;78.51
78431;BME280;67727;50.236;22.452;2023-12-29T05:02:31;99523.78;;;6.62;78.82
78431;BME280;67727;50.236;22.452;2023-12-29T05:04:58;99526.65;;;6.62;78.59
78431;BME280;67727;50.236;22.452;2023-12-29T05:07:26;99527.65;;;6.61;78.49
78431;BME280;67727;50.236;22.452;2023-12-29T05:09:53;99524.33;;;6.61;78.74
78431;BME280;67727;50.236;22.452;2023-12-29T05:12:20;99526.84;;;6.60;78.85
78431;BME280;67727;50.236;22.452;2023-12-29T05:14:47;99525.43;;;6.60;78.33
78431;BME280;67727;50.236;22.452;2023-12-29T05:17:14;99522.89;;;6.59;78.69
78431;BME280;67727;50.236;22.452;2023-12-29T05:19:41;99520.06;;;6.59;78.47
78431;BME280;67727;50.236;22.452;2023-12-29T05:22:08;99516.51;;;6.58;78.68
78431;BME280;67727;50.236;22.452;2023-12-29T05:24:35;99515.84;;;6.56;78.47
78431;BME280;67727;50.236;22.452;2023-12-29T05:27:02;99518.94;;;6.55;78.68
78431;BME280;67727;50.236;22.452;2023-12-29T05:29:30;99524.10;;;6.52;78.43
78431;BME280;67727;50.236;22.452;2023-12-29T05:31:56;99523.01;;;6.49;78.47
78431;BME280;67727;50.236;22.452;2023-12-29T05:34:23;99518.86;;;6.47;78.43
78431;BME280;67727;50.236;22.452;2023-12-29T05:36:50;99520.57;;;6.44;78.57
78431;BME280;67727;50.236;22.452;2023-12-29T05:39:17;99520.80;;;6.42;78.71
78431;BME280;67727;50.236;22.452;2023-12-29T05:41:44;99522.20;;;6.40;78.72
78431;BME280;67727;50.236;22.452;2023-12-29T05:44:10;99525.39;;;6.38;78.71
78431;BME280;67727;50.236;22.452;2023-12-29T05:46:37;99523.38;;;6.37;78.58
78431;BME280;67727;50.236;22.452;2023-12-29T05:49:04;99524.47;;;6.37;78.81
78431;BME280;67727;50.236;22.452;2023-12-29T05:51:31;99517.81;;;6.35;78.70
78431;BME280;67727;50.236;22.452;2023-12-29T05:53:57;99526.04;;;6.33;78.64
78431;BME280;67727;50.236;22.452;2023-12-29T05:56:24;99524.61;;;6.32;78.42
78431;BME280;67727;50.236;22.452;2023-12-29T05:58:51;99528.03;;;6.29;78.57
78431;BME280;67727;50.236;22.452;2023-12-29T06:01:19;99529.19;;;6.26;78.29
78431;BME280;67727;50.236;22.452;2023-12-29T06:03:46;99532.05;;;6.22;78.15
78431;BME280;67727;50.236;22.452;2023-12-29T06:06:13;99532.27;;;6.18;78.53
78431;BME280;67727;50.236;22.452;2023-12-29T06:08:40;99526.02;;;6.12;78.27
78431;BME280;67727;50.236;22.452;2023-12-29T06:11:07;99528.37;;;6.06;78.09
78431;BME280;67727;50.236;22.452;2023-12-29T06:13:34;99529.97;;;6.01;78.35
78431;BME280;67727;50.236;22.452;2023-12-29T06:16:01;99526.52;;;5.95;78.60
78431;BME280;67727;50.236;22.452;2023-12-29T06:18:27;99532.22;;;5.90;78.61
78431;BME280;67727;50.236;22.452;2023-12-29T06:20:54;99536.30;;;5.88;78.95
78431;BME280;67727;50.236;22.452;2023-12-29T06:23:21;99535.80;;;5.88;78.95
78431;BME280;67727;50.236;22.452;2023-12-29T06:25:48;99534.12;;;5.87;78.87
78431;BME280;67727;50.236;22.452;2023-12-29T06:28:15;99536.48;;;5.86;78.73
78431;BME280;67727;50.236;22.452;2023-12-29T06:30:41;99538.98;;;5.82;78.82
78431;BME280;67727;50.236;22.452;2023-12-29T06:33:08;99538.87;;;5.80;78.95
78431;BME280;67727;50.236;22.452;2023-12-29T06:35:35;99542.61;;;5.77;79.13
78431;BME280;67727;50.236;22.452;2023-12-29T06:38:02;99540.14;;;5.77;79.13
78431;BME280;67727;50.236;22.452;2023-12-29T06:40:29;99535.15;;;5.78;79.25
78431;BME280;67727;50.236;22.452;2023-12-29T06:42:56;99532.79;;;5.79;79.26
78431;BME280;67727;50.236;22.452;2023-12-29T06:45:23;99533.16;;;5.81;79.27
78431;BME280;67727;50.236;22.452;2023-12-29T06:47:50;99532.96;;;5.81;79.34
78431;BME280;67727;50.236;22.452;2023-12-29T06:50:17;99531.91;;;5.81;79.31
78431;BME280;67727;50.236;22.452;2023-12-29T06:52:43;99531.98;;;5.80;78.97
78431;BME280;67727;50.236;22.452;2023-12-29T06:55:10;99532.72;;;5.80;79.30
78431;BME280;67727;50.236;22.452;2023-12-29T06:57:37;99533.05;;;5.80;79.32
78431;BME280;67727;50.236;22.452;2023-12-29T07:00:05;99530.95;;;5.80;79.31
78431;BME280;67727;50.236;22.452;2023-12-29T07:02:32;99544.38;;;5.81;79.24
78431;BME280;67727;50.236;22.452;2023-12-29T07:04:59;99534.98;;;5.82;79.24
78431;BME280;67727;50.236;22.452;2023-12-29T07:07:26;99536.31;;;5.83;79.14
78431;BME280;67727;50.236;22.452;2023-12-29T07:09:53;99537.10;;;5.85;79.05
78431;BME280;67727;50.236;22.452;2023-12-29T07:12:20;99533.91;;;5.89;79.18
78431;BME280;67727;50.236;22.452;2023-12-29T07:14:47;99527.59;;;5.93;78.82
78431;BME280;67727;50.236;22.452;2023-12-29T07:17:13;99531.16;;;5.96;78.78
78431;BME280;67727;50.236;22.452;2023-12-29T07:19:40;99535.84;;;6.00;78.76
78431;BME280;67727;50.236;22.452;2023-12-29T07:22:07;99541.64;;;6.03;78.84
78431;BME280;67727;50.236;22.452;2023-12-29T07:24:34;99545.07;;;6.06;78.79
78431;BME280;67727;50.236;22.452;2023-12-29T07:27:02;99534.48;;;6.07;78.45
78431;BME280;67727;50.236;22.452;2023-12-29T07:29:29;99531.91;;;6.06;78.64
78431;BME280;67727;50.236;22.452;2023-12-29T07:31:55;99532.47;;;6.05;78.28
78431;BME280;67727;50.236;22.452;2023-12-29T07:34:22;99536.40;;;6.07;78.43
78431;BME280;67727;50.236;22.452;2023-12-29T07:36:49;99530.92;;;6.09;78.33
78431;BME280;67727;50.236;22.452;2023-12-29T07:39:17;99531.12;;;6.12;78.37
78431;BME280;67727;50.236;22.452;2023-12-29T07:41:44;99530.14;;;6.17;78.34
78431;BME280;67727;50.236;22.452;2023-12-29T07:44:11;99538.73;;;6.22;78.14
78431;BME280;67727;50.236;22.452;2023-12-29T07:46:40;99531.59;;;6.27;78.28
78431;BME280;67727;50.236;22.452;2023-12-29T07:49:07;99533.73;;;6.32;78.06
78431;BME280;67727;50.236;22.452;2023-12-29T07:51:34;99532.85;;;6.36;77.85
78431;BME280;67727;50.236;22.452;2023-12-29T07:54:01;99534.64;;;6.38;77.57
78431;BME280;67727;50.236;22.452;2023-12-29T07:56:28;99536.17;;;6.41;77.70
78431;BME280;67727;50.236;22.452;2023-12-29T07:58:54;99535.14;;;6.42;77.49
78431;BME280;67727;50.236;22.452;2023-12-29T08:01:21;99531.22;;;6.43;77.46
78431;BME280;67727;50.236;22.452;2023-12-29T08:03:48;99532.84;;;6.44;77.34
78431;BME280;67727;50.236;22.452;2023-12-29T08:06:15;99538.50;;;6.49;77.18
78431;BME280;67727;50.236;22.452;2023-12-29T08:08:42;99535.33;;;6.56;77.25
78431;BME280;67727;50.236;22.452;2023-12-29T08:11:16;99525.81;;;6.65;76.98
78431;BME280;67727;50.236;22.452;2023-12-29T08:13:44;99533.63;;;6.76;76.72
78431;BME280;67727;50.236;22.452;2023-12-29T08:16:11;99540.88;;;6.88;76.78
78431;BME280;67727;50.236;22.452;2023-12-29T08:18:38;99540.83;;;6.95;76.51
78431;BME280;67727;50.236;22.452;2023-12-29T08:21:05;99531.38;;;6.98;76.11
78431;BME280;67727;50.236;22.452;2023-12-29T08:23:32;99532.96;;;7.01;76.29
78431;BME280;67727;50.236;22.452;2023-12-29T08:25:59;99529.39;;;7.04;76.05
78431;BME280;67727;50.236;22.452;2023-12-29T08:28:27;99531.70;;;7.07;76.18
78431;BME280;67727;50.236;22.452;2023-12-29T08:30:54;99532.57;;;7.12;75.96
78431;BME280;67727;50.236;22.452;2023-12-29T08:33:20;99537.42;;;7.18;75.74
78431;BME280;67727;50.236;22.452;2023-12-29T08:35:47;99543.05;;;7.23;75.89
78431;BME280;67727;50.236;22.452;2023-12-29T08:38:14;99542.75;;;7.27;75.73
78431;BME280;67727;50.236;22.452;2023-12-29T08:40:41;99547.29;;;7.33;75.38
78431;BME280;67727;50.236;22.452;2023-12-29T08:43:08;99548.54;;;7.38;75.28
78431;BME280;67727;50.236;22.452;2023-12-29T08:45:35;99560.30;;;7.42;75.07
78431;BME280;67727;50.236;22.452;2023-12-29T08:48:03;99560.33;;;7.43;75.01
78431;BME280;67727;50.236;22.452;2023-12-29T08:50:30;99559.08;;;7.43;74.85
78431;BME280;67727;50.236;22.452;2023-12-29T08:52:56;99569.23;;;7.43;74.92
78431;BME280;67727;50.236;22.452;2023-12-29T08:55:23;99570.55;;;7.44;74.84
78431;BME280;67727;50.236;22.452;2023-12-29T08:57:50;99569.06;;;7.45;75.20
78431;BME280;67727;50.236;22.452;2023-12-29T09:00:17;99569.80;;;7.46;75.11
78431;BME280;67727;50.236;22.452;2023-12-29T09:02:45;99566.39;;;7.49;74.87
78431;BME280;67727;50.236;22.452;2023-12-29T09:05:13;99564.75;;;7.53;74.77
78431;BME280;67727;50.236;22.452;2023-12-29T09:07:40;99566.20;;;7.59;74.85
78431;BME280;67727;50.236;22.452;2023-12-29T09:10:07;99563.02;;;7.66;74.70
78431;BME280;67727;50.236;22.452;2023-12-29T09:12:35;99559.23;;;7.73;74.78
78431;BME280;67727;50.236;22.452;2023-12-29T09:15:02;99549.62;;;7.79;74.54
78431;BME280;67727;50.236;22.452;2023-12-29T09:17:29;99547.02;;;7.83;74.47
78431;BME280;67727;50.236;22.452;2023-12-29T09:19:56;99547.49;;;7.87;73.96
78431;BME280;67727;50.236;22.452;2023-12-29T09:22:23;99544.65;;;7.91;74.39
78431;BME280;67727;50.236;22.452;2023-12-29T09:24:50;99538.10;;;7.97;74.21
78431;BME280;67727;50.236;22.452;2023-12-29T09:27:17;99540.25;;;8.01;74.12
78431;BME280;67727;50.236;22.452;2023-12-29T09:29:44;99531.08;;;8.06;74.46
78431;BME280;67727;50.236;22.452;2023-12-29T09:32:11;99528.11;;;8.12;73.54
78431;BME280;67727;50.236;22.452;2023-12-29T09:34:38;99515.66;;;8.17;73.12
78431;BME280;67727;50.236;22.452;2023-12-29T09:37:04;99513.56;;;8.20;73.06
78431;BME280;67727;50.236;22.452;2023-12-29T09:39:31;99508.38;;;8.23;73.45
78431;BME280;67727;50.236;22.452;2023-12-29T09:41:59;99502.00;;;8.26;73.47
78431;BME280;67727;50.236;22.452;2023-12-29T09:44:31;99500.85;;;8.27;73.03
78431;BME280;67727;50.236;22.452;2023-12-29T09:47:02;99501.27;;;8.26;72.84
78431;BME280;67727;50.236;22.452;2023-12-29T09:49:36;99501.73;;;8.25;73.31
78431;BME280;67727;50.236;22.452;2023-12-29T09:52:06;99498.63;;;8.23;72.76
78431;BME280;67727;50.236;22.452;2023-12-29T09:54:34;99493.02;;;8.23;73.33
78431;BME280;67727;50.236;22.452;2023-12-29T09:57:03;99492.23;;;8.24;72.62
78431;BME280;67727;50.236;22.452;2023-12-29T09:59:32;99492.06;;;8.25;73.18
78431;BME280;67727;50.236;22.452;2023-12-29T10:02:03;99497.25;;;8.26;72.81
78431;BME280;67727;50.236;22.452;2023-12-29T10:04:31;99497.16;;;8.27;72.96
78431;BME280;67727;50.236;22.452;2023-12-29T10:07:02;99490.25;;;8.27;72.59
78431;BME280;67727;50.236;22.452;2023-12-29T10:09:34;99493.09;;;8.27;73.06
78431;BME280;67727;50.236;22.452;2023-12-29T10:12:09;99490.23;;;8.27;72.36
78431;BME280;67727;50.236;22.452;2023-12-29T10:17:51;99493.33;;;8.33;73.00
78431;BME280;67727;50.236;22.452;2023-12-29T10:20:44;99486.55;;;8.34;72.57
78431;BME280;67727;50.236;22.452;2023-12-29T10:23:28;99485.45;;;8.36;72.34
78431;BME280;67727;50.236;22.452;2023-12-29T10:25:59;99481.75;;;8.41;72.47
78431;BME280;67727;50.236;22.452;2023-12-29T10:28:25;99476.85;;;8.47;72.37
78431;BME280;67727;50.236;22.452;2023-12-29T10:30:52;99475.15;;;8.55;72.17
78431;BME280;67727;50.236;22.452;2023-12-29T10:33:20;99467.59;;;8.62;71.85
78431;BME280;67727;50.236;22.452;2023-12-29T10:35:58;99466.98;;;8.69;72.13
78431;BME280;67727;50.236;22.452;2023-12-29T10:38:29;99466.10;;;8.79;71.89
78431;BME280;67727;50.236;22.452;2023-12-29T10:41:15;99464.61;;;8.86;71.63
78431;BME280;67727;50.236;22.452;2023-12-29T10:43:45;99466.35;;;8.92;71.30
78431;BME280;67727;50.236;22.452;2023-12-29T10:46:18;99469.06;;;8.96;70.35
78431;BME280;67727;50.236;22.452;2023-12-29T10:48:46;99463.17;;;9.00;71.02
78431;BME280;67727;50.236;22.452;2023-12-29T10:51:12;99460.64;;;9.06;70.32
78431;BME280;67727;50.236;22.452;2023-12-29T10:53:39;99459.55;;;9.11;70.73
78431;BME280;67727;50.236;22.452;2023-12-29T10:56:16;99456.86;;;9.14;70.03
78431;BME280;67727;50.236;22.452;2023-12-29T10:58:57;99449.22;;;9.15;69.82
78431;BME280;67727;50.236;22.452;2023-12-29T11:01:24;99448.25;;;9.15;69.96
78431;BME280;67727;50.236;22.452;2023-12-29T11:03:59;99446.20;;;9.18;70.42
78431;BME280;67727;50.236;22.452;2023-12-29T11:06:27;99438.22;;;9.20;69.79
78431;BME280;67727;50.236;22.452;2023-12-29T11:08:56;99436.08;;;9.20;69.69
78431;BME280;67727;50.236;22.452;2023-12-29T11:11:24;99439.05;;;9.23;70.22
78431;BME280;67727;50.236;22.452;2023-12-29T11:13:53;99429.61;;;9.27;70.15
78431;BME280;67727;50.236;22.452;2023-12-29T11:16:21;99431.84;;;9.31;69.85
78431;BME280;67727;50.236;22.452;2023-12-29T11:18:49;99434.75;;;9.36;69.79
78431;BME280;67727;50.236;22.452;2023-12-29T11:21:21;99426.17;;;9.42;69.29
78431;BME280;67727;50.236;22.452;2023-12-29T11:23:50;99425.55;;;9.44;69.53
78431;BME280;67727;50.236;22.452;2023-12-29T11:26:18;99418.25;;;9.46;69.55
78431;BME280;67727;50.236;22.452;2023-12-29T11:28:48;99416.19;;;9.47;69.37
78431;BME280;67727;50.236;22.452;2023-12-29T11:31:18;99414.36;;;9.48;69.23
78431;BME280;67727;50.236;22.452;2023-12-29T11:34:05;99417.73;;;9.48;68.92
78431;BME280;67727;50.236;22.452;2023-12-29T11:36:38;99415.23;;;9.49;69.44
78431;BME280;67727;50.236;22.452;2023-12-29T11:39:28;99419.31;;;9.51;69.22
78431;BME280;67727;50.236;22.452;2023-12-29T11:42:06;99413.48;;;9.52;69.36
78431;BME280;67727;50.236;22.452;2023-12-29T11:44:33;99410.73;;;9.53;69.01
78431;BME280;67727;50.236;22.452;2023-12-29T11:47:00;99407.70;;;9.50;68.55
78431;BME280;67727;50.236;22.452;2023-12-29T11:49:59;99405.42;;;9.49;68.68
78431;BME280;67727;50.236;22.452;2023-12-29T11:52:38;99402.77;;;9.49;68.58
78431;BME280;67727;50.236;22.452;2023-12-29T11:55:12;99397.62;;;9.51;68.47
78431;BME280;67727;50.236;22.452;2023-12-29T11:57:39;99396.95;;;9.52;67.86
78431;BME280;67727;50.236;22.452;2023-12-29T12:00:08;99392.45;;;9.51;67.76
78431;BME280;67727;50.236;22.452;2023-12-29T12:02:36;99394.48;;;9.49;67.19
78431;BME280;67727;50.236;22.452;2023-12-29T12:05:03;99395.65;;;9.45;67.67
78431;BME280;67727;50.236;22.452;2023-12-29T12:12:47;99393.73;;;9.48;67.97
78431;BME280;67727;50.236;22.452;2023-12-29T12:18:10;99396.16;;;9.47;67.89
78431;BME280;67727;50.236;22.452;2023-12-29T12:20:38;99393.15;;;9.47;67.95
78431;BME280;67727;50.236;22.452;2023-12-29T12:23:09;99392.17;;;9.47;67.79
78431;BME280;67727;50.236;22.452;2023-12-29T12:25:39;99393.52;;;9.45;67.51
78431;BME280;67727;50.236;22.452;2023-12-29T12:28:07;99385.56;;;9.44;67.70
78431;BME280;67727;50.236;22.452;2023-12-29T12:30:34;99386.52;;;9.45;67.74
78431;BME280;67727;50.236;22.452;2023-12-29T12:33:03;99390.61;;;9.46;68.14
78431;BME280;67727;50.236;22.452;2023-12-29T12:35:30;99393.20;;;9.45;67.36
78431;BME280;67727;50.236;22.452;2023-12-29T12:38:26;99390.09;;;9.43;67.80
78431;BME280;67727;50.236;22.452;2023-12-29T12:40:56;99393.45;;;9.41;67.64
78431;BME280;67727;50.236;22.452;2023-12-29T12:43:25;99402.42;;;9.40;67.49
78431;BME280;67727;50.236;22.452;2023-12-29T12:45:55;99400.89;;;9.38;67.98
78431;BME280;67727;50.236;22.452;2023-12-29T12:48:45;99399.59;;;9.37;68.08
78431;BME280;67727;50.236;22.452;2023-12-29T12:51:12;99400.64;;;9.34;67.41
78431;BME280;67727;50.236;22.452;2023-12-29T12:53:43;99402.22;;;9.31;67.76
78431;BME280;67727;50.236;22.452;2023-12-29T12:56:11;99402.73;;;9.28;68.15
78431;BME280;67727;50.236;22.452;2023-12-29T12:58:37;99397.77;;;9.25;68.25
78431;BME280;67727;50.236;22.452;2023-12-29T13:01:05;99395.90;;;9.21;67.88
78431;BME280;67727;50.236;22.452;2023-12-29T13:03:32;99398.86;;;9.19;68.15
78431;BME280;67727;50.236;22.452;2023-12-29T13:06:00;99397.54;;;9.16;68.63
78431;BME280;67727;50.236;22.452;2023-12-29T13:08:27;99393.86;;;9.15;68.20
78431;BME280;67727;50.236;22.452;2023-12-29T13:10:54;99391.58;;;9.12;68.27
78431;BME280;67727;50.236;22.452;2023-12-29T13:13:21;99393.23;;;9.08;68.20
78431;BME280;67727;50.236;22.452;2023-12-29T13:15:49;99395.61;;;9.04;68.38
78431;BME280;67727;50.236;22.452;2023-12-29T13:18:17;99389.66;;;8.99;68.72
78431;BME280;67727;50.236;22.452;2023-12-29T13:20:46;99388.48;;;8.94;68.73
78431;BME280;67727;50.236;22.452;2023-12-29T13:23:14;99395.76;;;8.87;68.88
78431;BME280;67727;50.236;22.452;2023-12-29T13:25:43;99402.39;;;8.81;68.93
78431;BME280;67727;50.236;22.452;2023-12-29T13:28:10;99404.43;;;8.76;69.04